createdAt,value
2023-04-15T00:01:02.672Z,64.56
2023-04-15T00:03:29.565Z,64.73
2023-04-15T00:05:57.054Z,65.36
2023-04-15T00:08:23.616Z,65.16
2023-04-15T00:10:50.311Z,64.73
2023-04-15T00:13:16.885Z,64.36
2023-04-15T00:15:43.518Z,65.51
2023-04-15T00:18:10.209Z,65.30
2023-04-15T00:20:36.807Z,65.63
2023-04-15T00:23:03.428Z,65.74
2023-04-15T00:25:30.038Z,65.66
2023-04-15T00:27:58.696Z,65.22
2023-04-15T00:30:25.366Z,64.86
2023-04-15T00:32:52.386Z,64.67
2023-04-15T00:35:19.022Z,65.43
2023-04-15T00:37:46.397Z,64.81
2023-04-15T00:40:13.175Z,65.01
2023-04-15T00:42:39.754Z,65.38
2023-04-15T00:45:06.382Z,65.10
2023-04-15T00:47:32.992Z,64.94
2023-04-15T00:49:59.609Z,65.15
2023-04-15T00:52:26.254Z,65.85
2023-04-15T00:54:52.868Z,65.44
2023-04-15T00:57:19.431Z,65.36
2023-04-15T00:59:47.047Z,65.66
2023-04-15T01:02:13.708Z,65.44
2023-04-15T01:04:40.422Z,65.37
2023-04-15T01:07:07.037Z,64.98
2023-04-15T01:09:33.626Z,65.05
2023-04-15T01:12:00.236Z,64.94
2023-04-15T01:14:26.799Z,65.01
2023-04-15T01:16:53.405Z,65.48
2023-04-15T01:19:19.966Z,64.97
2023-04-15T01:21:46.565Z,64.82
2023-04-15T01:24:13.467Z,65.14
2023-04-15T01:26:40.058Z,65.06
2023-04-15T01:29:06.645Z,65.20
2023-04-15T01:31:33.468Z,65.09
2023-04-15T01:34:00.113Z,65.13
2023-04-15T01:36:26.789Z,65.27
2023-04-15T01:38:53.340Z,64.95
2023-04-15T01:41:19.950Z,64.96
2023-04-15T01:43:46.594Z,65.31
2023-04-15T01:46:13.177Z,64.94
2023-04-15T01:48:39.816Z,65.19
2023-04-15T01:51:06.498Z,64.85
2023-04-15T01:53:33.073Z,64.30
2023-04-15T01:55:59.730Z,64.40
2023-04-15T01:58:26.350Z,64.88
2023-04-15T02:00:52.951Z,64.36
2023-04-15T02:03:19.628Z,64.33
2023-04-15T02:05:46.254Z,64.66
2023-04-15T02:08:12.843Z,64.82
2023-04-15T02:10:39.418Z,64.54
2023-04-15T02:13:06.010Z,64.45
2023-04-15T02:15:34.909Z,64.48
2023-04-15T02:18:01.553Z,64.53
2023-04-15T02:20:28.160Z,64.49
2023-04-15T02:22:54.753Z,65.29
2023-04-15T02:25:21.303Z,64.62
2023-04-15T02:27:47.918Z,64.71
2023-04-15T02:30:14.481Z,64.64
2023-04-15T02:32:41.106Z,65.21
2023-04-15T02:35:07.741Z,65.00
2023-04-15T02:37:34.382Z,65.35
2023-04-15T02:40:00.947Z,64.58
2023-04-15T02:42:27.599Z,64.30
2023-04-15T02:44:54.181Z,64.91
2023-04-15T02:47:20.840Z,64.69
2023-04-15T02:49:47.468Z,64.88
2023-04-15T02:52:14.066Z,64.20
2023-04-15T02:54:40.628Z,64.92
2023-04-15T02:57:07.232Z,64.45
2023-04-15T02:59:33.819Z,64.50
2023-04-15T03:02:00.438Z,64.59
2023-04-15T03:04:29.074Z,64.43
2023-04-15T03:06:55.682Z,64.71
2023-04-15T03:09:22.269Z,64.71
2023-04-15T03:11:48.846Z,64.63
2023-04-15T03:14:15.453Z,64.94
2023-04-15T03:16:42.011Z,64.70
2023-04-15T03:19:08.616Z,64.49
2023-04-15T03:21:35.187Z,64.50
2023-04-15T03:24:01.812Z,65.67
2023-04-15T03:26:28.425Z,65.62
2023-04-15T03:28:54.996Z,65.23
2023-04-15T03:31:21.708Z,64.91
2023-04-15T03:33:48.437Z,65.46
2023-04-15T03:36:15.058Z,64.75
2023-04-15T03:38:41.642Z,65.02
2023-04-15T03:41:08.432Z,64.95
2023-04-15T03:43:35.000Z,64.88
2023-04-15T03:46:02.014Z,65.20
2023-04-15T03:48:28.690Z,65.92
2023-04-15T03:50:55.264Z,67.19
2023-04-15T03:53:21.875Z,66.33
2023-04-15T03:55:48.478Z,66.03
2023-04-15T03:58:15.041Z,65.83
2023-04-15T04:00:41.639Z,65.86
2023-04-15T04:03:08.522Z,65.54
2023-04-15T04:05:35.316Z,65.41
2023-04-15T04:08:01.900Z,65.87
2023-04-15T04:10:28.677Z,65.83
2023-04-15T04:12:55.227Z,65.33
2023-04-15T04:15:21.797Z,64.77
2023-04-15T04:17:48.475Z,64.97
2023-04-15T04:20:15.032Z,64.95
2023-04-15T04:22:41.645Z,65.32
2023-04-15T04:25:08.243Z,65.58
2023-04-15T04:27:34.838Z,64.90
2023-04-15T04:30:01.445Z,65.29
2023-04-15T04:32:28.099Z,65.32
2023-04-15T04:34:54.722Z,64.92
2023-04-15T04:37:21.338Z,65.01
2023-04-15T04:39:48.266Z,64.52
2023-04-15T04:42:14.837Z,64.79
2023-04-15T04:44:41.397Z,64.23
2023-04-15T04:47:07.996Z,64.29
2023-04-15T04:49:34.664Z,64.25
2023-04-15T04:52:01.229Z,64.42
2023-04-15T04:54:28.005Z,64.02
2023-04-15T04:56:54.741Z,64.56
2023-04-15T04:59:21.302Z,64.52
2023-04-15T05:01:47.942Z,64.90
2023-04-15T05:04:14.952Z,64.32
2023-04-15T05:06:41.816Z,64.62
2023-04-15T05:09:08.490Z,64.38
2023-04-15T05:11:35.411Z,64.27
2023-04-15T05:14:02.050Z,64.80
2023-04-15T05:16:28.605Z,64.77
2023-04-15T05:18:55.191Z,64.84
2023-04-15T05:21:21.813Z,64.62
2023-04-15T05:23:48.403Z,64.27
2023-04-15T05:26:15.054Z,64.63
2023-04-15T05:28:41.647Z,64.14
2023-04-15T05:31:08.305Z,64.38
2023-04-15T05:33:35.212Z,64.19
2023-04-15T05:36:01.809Z,64.52
2023-04-15T05:38:28.419Z,65.54
2023-04-15T05:40:54.995Z,65.20
2023-04-15T05:43:21.615Z,65.20
2023-04-15T05:45:48.340Z,65.41
2023-04-15T05:48:14.985Z,65.08
2023-04-15T05:50:41.598Z,65.02
2023-04-15T05:53:08.181Z,64.20
2023-04-15T05:55:34.747Z,64.35
2023-04-15T05:58:01.326Z,64.21
2023-04-15T06:00:27.884Z,63.88
2023-04-15T06:02:57.027Z,64.24
2023-04-15T06:05:23.681Z,64.15
2023-04-15T06:07:50.281Z,64.45
2023-04-15T06:10:18.722Z,64.21
2023-04-15T06:12:45.449Z,64.23
2023-04-15T06:15:12.014Z,64.89
2023-04-15T06:17:38.691Z,64.63
2023-04-15T06:20:05.370Z,64.25
2023-04-15T06:22:31.982Z,64.34
2023-04-15T06:24:58.595Z,64.29
2023-04-15T06:27:25.164Z,63.65
2023-04-15T06:29:51.776Z,63.43
2023-04-15T06:32:18.372Z,64.09
2023-04-15T06:34:44.956Z,63.48
2023-04-15T06:37:11.561Z,63.55
2023-04-15T06:39:38.485Z,63.36
2023-04-15T06:42:05.225Z,63.46
2023-04-15T06:44:33.768Z,63.13
2023-04-15T06:47:00.673Z,63.02
2023-04-15T06:49:27.261Z,62.89
2023-04-15T06:51:53.819Z,63.23
2023-04-15T06:54:20.410Z,63.29
2023-04-15T06:56:47.078Z,63.88
2023-04-15T06:59:13.698Z,63.50
2023-04-15T07:01:40.285Z,62.77
2023-04-15T07:04:07.117Z,62.94
2023-04-15T07:06:33.850Z,62.45
2023-04-15T07:09:00.695Z,62.79
2023-04-15T07:11:27.489Z,62.87
2023-04-15T07:13:54.101Z,63.05
2023-04-15T07:16:20.785Z,62.70
2023-04-15T07:18:47.395Z,62.41
2023-04-15T07:21:14.189Z,62.21
2023-04-15T07:23:40.790Z,61.75
2023-04-15T07:26:07.421Z,62.52
2023-04-15T07:28:34.030Z,63.09
2023-04-15T07:31:00.704Z,62.81
2023-04-15T07:33:27.327Z,62.55
2023-04-15T07:35:53.928Z,63.30
2023-04-15T07:38:20.516Z,62.97
2023-04-15T07:40:47.777Z,63.93
2023-04-15T07:43:14.380Z,63.54
2023-04-15T07:45:41.459Z,63.21
2023-04-15T07:48:08.062Z,63.54
2023-04-15T07:50:34.755Z,63.20
2023-04-15T07:53:01.378Z,63.11
2023-04-15T07:55:28.393Z,62.41
2023-04-15T07:57:55.035Z,62.71
2023-04-15T08:00:21.650Z,61.77
2023-04-15T08:02:48.474Z,61.25
2023-04-15T08:05:15.285Z,61.38
2023-04-15T08:07:41.913Z,61.15
2023-04-15T08:10:08.524Z,61.04
2023-04-15T08:12:35.127Z,61.00
2023-04-15T08:15:01.751Z,60.33
2023-04-15T08:17:28.405Z,59.85
2023-04-15T08:19:55.046Z,60.60
2023-04-15T08:22:22.406Z,60.43
2023-04-15T08:24:49.124Z,60.03
2023-04-15T08:27:15.737Z,60.23
2023-04-15T08:29:42.349Z,59.77
2023-04-15T08:32:08.987Z,59.68
2023-04-15T08:34:35.558Z,59.48
2023-04-15T08:37:02.159Z,60.91
2023-04-15T08:39:28.829Z,60.24
2023-04-15T08:41:55.595Z,60.94
2023-04-15T08:44:22.426Z,59.65
2023-04-15T08:46:49.145Z,60.34
2023-04-15T08:49:16.050Z,60.81
2023-04-15T08:51:43.144Z,60.95
2023-04-15T08:54:09.723Z,61.08
2023-04-15T08:56:36.651Z,60.03
2023-04-15T08:59:03.529Z,59.09
2023-04-15T09:01:30.433Z,59.58
2023-04-15T09:03:57.318Z,59.36
2023-04-15T09:06:24.028Z,60.02
2023-04-15T09:08:50.602Z,60.97
2023-04-15T09:11:18.874Z,60.93
2023-04-15T09:13:46.533Z,61.12
2023-04-15T09:16:13.294Z,61.24
2023-04-15T09:18:39.996Z,60.02
2023-04-15T09:21:06.650Z,59.07
2023-04-15T09:23:33.252Z,58.47
2023-04-15T09:25:59.821Z,59.18
2023-04-15T09:28:26.422Z,58.39
2023-04-15T09:30:53.001Z,59.15
2023-04-15T09:33:19.567Z,58.68
2023-04-15T09:35:46.192Z,59.19
2023-04-15T09:38:12.759Z,57.55
2023-04-15T09:40:39.390Z,58.92
2023-04-15T09:43:05.979Z,59.21
2023-04-15T09:45:32.616Z,58.89
2023-04-15T09:47:59.292Z,59.54
2023-04-15T09:50:26.012Z,58.86
2023-04-15T09:52:52.581Z,57.10
2023-04-15T09:55:19.154Z,57.45
2023-04-15T09:57:45.766Z,56.90
2023-04-15T10:00:12.600Z,56.57
2023-04-15T10:02:39.392Z,57.52
2023-04-15T10:05:06.033Z,58.35
2023-04-15T10:07:32.773Z,57.85
2023-04-15T10:09:59.374Z,55.76
2023-04-15T10:12:25.983Z,56.81
2023-04-15T10:14:52.563Z,56.31
2023-04-15T10:17:19.168Z,56.55
2023-04-15T10:19:45.800Z,56.49
2023-04-15T10:22:12.387Z,56.45
2023-04-15T10:24:39.011Z,55.53
2023-04-15T10:27:05.586Z,55.65
2023-04-15T10:29:32.224Z,56.63
2023-04-15T10:31:58.956Z,55.36
2023-04-15T10:34:25.560Z,55.37
2023-04-15T10:36:52.326Z,56.19
2023-04-15T10:39:18.894Z,56.79
2023-04-15T10:41:45.571Z,56.32
2023-04-15T10:44:12.261Z,55.79
2023-04-15T10:46:39.197Z,54.97
2023-04-15T10:49:05.807Z,54.95
2023-04-15T10:51:32.368Z,56.26
2023-04-15T10:53:58.950Z,58.46
2023-04-15T10:56:25.522Z,58.54
2023-04-15T10:58:52.082Z,58.55
2023-04-15T11:01:18.809Z,57.86
2023-04-15T11:03:45.687Z,57.32
2023-04-15T11:06:12.346Z,57.53
2023-04-15T11:08:38.903Z,57.43
2023-04-15T11:11:05.500Z,59.19
2023-04-15T11:13:32.256Z,58.95
2023-04-15T11:15:58.936Z,57.41
2023-04-15T11:18:25.539Z,58.00
2023-04-15T11:20:52.210Z,59.17
2023-04-15T11:23:18.779Z,57.88
2023-04-15T11:25:45.528Z,56.27
2023-04-15T11:28:12.412Z,57.46
2023-04-15T11:30:39.048Z,56.43
2023-04-15T11:33:05.648Z,55.59
2023-04-15T11:35:32.259Z,55.35
2023-04-15T11:37:58.890Z,55.90
2023-04-15T11:40:25.571Z,55.02
2023-04-15T11:42:52.171Z,55.09
2023-04-15T11:45:19.788Z,55.05
2023-04-15T11:47:46.400Z,55.54
2023-04-15T11:50:12.988Z,54.91
2023-04-15T11:52:39.572Z,54.80
2023-04-15T11:55:06.195Z,54.95
2023-04-15T11:57:32.815Z,56.18
2023-04-15T11:59:59.421Z,57.62
2023-04-15T12:02:26.137Z,56.80
2023-04-15T12:04:53.055Z,55.35
2023-04-15T12:07:19.738Z,57.51
2023-04-15T12:09:46.318Z,56.50
2023-04-15T12:12:12.949Z,54.93
2023-04-15T12:14:39.617Z,54.17
2023-04-15T12:17:06.259Z,53.95
2023-04-15T12:19:32.900Z,56.42
2023-04-15T12:22:00.348Z,56.06
2023-04-15T12:24:27.490Z,56.90
2023-04-15T12:26:54.068Z,56.17
2023-04-15T12:29:20.656Z,55.93
2023-04-15T12:31:47.237Z,56.35
2023-04-15T12:34:13.895Z,56.28
2023-04-15T12:36:40.446Z,56.26
2023-04-15T12:39:07.112Z,56.51
2023-04-15T12:41:33.683Z,58.24
2023-04-15T12:44:00.282Z,57.60
2023-04-15T12:46:26.890Z,56.81
2023-04-15T12:48:53.588Z,56.56
2023-04-15T12:51:20.193Z,56.30
2023-04-15T12:53:46.995Z,57.87
2023-04-15T12:56:13.598Z,57.54
2023-04-15T12:58:40.284Z,57.59
2023-04-15T13:01:06.877Z,57.67
2023-04-15T13:03:33.628Z,57.01
2023-04-15T13:06:01.422Z,55.70
2023-04-15T13:08:28.072Z,55.75
2023-04-15T13:10:54.676Z,56.41
2023-04-15T13:13:21.373Z,55.52
2023-04-15T13:15:48.147Z,55.48
2023-04-15T13:18:14.732Z,55.54
2023-04-15T13:20:41.319Z,55.74
2023-04-15T13:23:07.960Z,57.08
2023-04-15T13:25:34.528Z,58.14
2023-04-15T13:28:01.253Z,59.57
2023-04-15T13:30:27.867Z,60.60
2023-04-15T13:32:54.530Z,63.12
2023-04-15T13:35:21.154Z,63.02
2023-04-15T13:37:47.761Z,62.33
2023-04-15T13:40:14.381Z,62.24
2023-04-15T13:42:41.021Z,61.83
2023-04-15T13:45:07.644Z,62.17
2023-04-15T13:47:34.359Z,62.11
2023-04-15T13:50:00.987Z,60.88
2023-04-15T13:52:27.582Z,60.25
2023-04-15T13:55:18.049Z,60.86
2023-04-15T13:57:40.742Z,60.79
2023-04-15T14:00:07.359Z,60.50
2023-04-15T14:02:34.482Z,59.97
2023-04-15T14:05:01.280Z,60.32
2023-04-15T14:07:27.894Z,60.61
2023-04-15T14:09:54.467Z,59.78
2023-04-15T14:12:21.038Z,58.27
2023-04-15T14:14:47.632Z,58.63
2023-04-15T14:17:14.191Z,58.62
2023-04-15T14:19:40.789Z,58.83
2023-04-15T14:22:08.271Z,58.17
2023-04-15T14:24:34.829Z,58.28
2023-04-15T14:27:01.479Z,58.26
2023-04-15T14:29:28.053Z,58.07
2023-04-15T14:32:08.490Z,58.79
2023-04-15T14:34:39.047Z,58.62
2023-04-15T14:37:05.712Z,58.83
2023-04-15T14:39:32.346Z,59.35
2023-04-15T14:41:58.987Z,59.05
2023-04-15T14:44:25.589Z,59.33
2023-04-15T14:46:52.387Z,59.58
2023-04-15T14:49:18.971Z,59.12
2023-04-15T14:51:45.563Z,58.41
2023-04-15T14:54:12.132Z,58.82
2023-04-15T14:56:38.749Z,59.85
2023-04-15T14:59:05.542Z,59.89
2023-04-15T15:01:32.294Z,59.42
2023-04-15T15:03:58.971Z,60.10
2023-04-15T15:06:25.583Z,59.77
2023-04-15T15:08:52.215Z,59.50
2023-04-15T15:11:18.829Z,59.85
2023-04-15T15:13:45.476Z,59.25
2023-04-15T15:16:14.332Z,59.36
2023-04-15T15:18:41.252Z,58.73
2023-04-15T15:21:07.900Z,59.75
2023-04-15T15:23:34.525Z,59.14
2023-04-15T15:26:01.155Z,59.56
2023-04-15T15:28:27.761Z,59.45
2023-04-15T15:30:54.430Z,59.44
2023-04-15T15:33:21.335Z,59.07
2023-04-15T15:35:48.005Z,59.61
2023-04-15T15:38:14.595Z,60.07
2023-04-15T15:40:41.171Z,59.80
2023-04-15T15:43:07.770Z,60.42
2023-04-15T15:45:34.396Z,60.88
2023-04-15T15:48:00.989Z,62.10
2023-04-15T15:50:27.719Z,61.92
2023-04-15T15:52:54.349Z,61.38
2023-04-15T15:55:20.901Z,60.63
2023-04-15T15:57:47.475Z,60.24
2023-04-15T16:00:14.082Z,60.11
2023-04-15T16:03:05.254Z,59.78
2023-04-15T16:05:27.265Z,60.10
2023-04-15T16:07:53.865Z,59.39
2023-04-15T16:10:20.546Z,59.59
2023-04-15T16:12:47.119Z,59.71
2023-04-15T16:15:14.048Z,60.10
2023-04-15T16:17:40.670Z,60.54
2023-04-15T16:20:07.412Z,59.97
2023-04-15T16:22:34.007Z,60.33
2023-04-15T16:25:00.599Z,61.09
2023-04-15T16:27:27.364Z,61.15
2023-04-15T16:29:54.001Z,61.10
2023-04-15T16:32:20.651Z,60.96
2023-04-15T16:34:47.277Z,60.58
2023-04-15T16:37:14.059Z,60.53
2023-04-15T16:39:40.633Z,60.30
2023-04-15T16:42:07.267Z,60.48
2023-04-15T16:44:33.891Z,60.74
2023-04-15T16:47:00.487Z,61.66
2023-04-15T16:49:27.050Z,60.68
2023-04-15T16:51:54.603Z,60.85
2023-04-15T16:54:21.332Z,60.53
2023-04-15T16:56:47.903Z,61.77
2023-04-15T16:59:14.549Z,60.42
2023-04-15T17:01:41.210Z,59.93
2023-04-15T17:04:07.928Z,61.02
2023-04-15T17:06:34.684Z,62.94
2023-04-15T17:09:01.235Z,62.17
2023-04-15T17:11:28.014Z,62.23
2023-04-15T17:13:54.610Z,61.85
2023-04-15T17:16:21.371Z,62.08
2023-04-15T17:18:48.071Z,62.51
2023-04-15T17:21:14.651Z,62.91
2023-04-15T17:23:41.196Z,62.76
2023-04-15T17:26:07.797Z,62.28
2023-04-15T17:28:34.370Z,61.90
2023-04-15T17:31:00.965Z,62.24
2023-04-15T17:33:56.175Z,62.31
2023-04-15T17:36:14.155Z,62.32
2023-04-15T17:38:40.722Z,62.17
2023-04-15T17:41:07.418Z,62.08
2023-04-15T17:43:33.987Z,62.45
2023-04-15T17:46:00.546Z,62.67
2023-04-15T17:48:27.163Z,63.44
2023-04-15T17:50:53.755Z,63.28
2023-04-15T17:53:20.355Z,63.42
2023-04-15T17:55:46.990Z,63.06
2023-04-15T17:58:13.579Z,62.65
2023-04-15T18:00:40.568Z,63.30
2023-04-15T18:03:07.174Z,63.24
2023-04-15T18:05:33.781Z,62.82
2023-04-15T18:08:00.761Z,62.66
2023-04-15T18:10:27.873Z,62.91
2023-04-15T18:12:54.477Z,62.40
2023-04-15T18:15:21.042Z,63.00
2023-04-15T18:17:47.675Z,62.81
2023-04-15T18:20:14.314Z,63.70
2023-04-15T18:22:40.882Z,63.25
2023-04-15T18:25:07.508Z,62.91
2023-04-15T18:27:34.098Z,62.95
2023-04-15T18:30:00.697Z,62.78
2023-04-15T18:32:27.624Z,63.02
2023-04-15T18:34:54.940Z,62.82
2023-04-15T18:37:22.584Z,62.56
2023-04-15T18:39:49.254Z,62.32
2023-04-15T18:42:15.855Z,62.17
2023-04-15T18:44:42.451Z,62.07
2023-04-15T18:47:09.153Z,62.60
2023-04-15T18:49:36.564Z,62.48
2023-04-15T18:52:03.150Z,62.98
2023-04-15T18:54:29.817Z,63.17
2023-04-15T18:56:56.442Z,64.11
2023-04-15T18:59:29.991Z,64.45
2023-04-15T19:01:57.146Z,63.97
2023-04-15T19:04:23.838Z,64.47
2023-04-15T19:06:50.491Z,63.79
2023-04-15T19:09:17.071Z,64.10
2023-04-15T19:11:43.666Z,64.64
2023-04-15T19:14:10.251Z,63.92
2023-04-15T19:16:36.911Z,64.06
2023-04-15T19:19:03.696Z,63.93
2023-04-15T19:21:30.546Z,63.55
2023-04-15T19:23:57.093Z,63.70
2023-04-15T19:26:23.730Z,63.86
2023-04-15T19:28:50.307Z,63.36
2023-04-15T19:31:16.924Z,63.19
2023-04-15T19:33:43.559Z,64.33
2023-04-15T19:36:10.141Z,64.16
2023-04-15T19:38:36.705Z,63.66
2023-04-15T19:41:03.713Z,63.70
2023-04-15T19:43:30.318Z,63.44
2023-04-15T19:45:57.520Z,63.67
2023-04-15T19:48:24.114Z,64.10
2023-04-15T19:50:50.792Z,63.91
2023-04-15T19:53:17.336Z,63.58
2023-04-15T19:55:43.937Z,63.54
2023-04-15T19:58:10.517Z,62.97
2023-04-15T20:00:37.115Z,63.12
2023-04-15T20:03:04.178Z,63.16
2023-04-15T20:05:30.871Z,62.89
2023-04-15T20:07:59.759Z,63.42
2023-04-15T20:10:26.491Z,63.14
2023-04-15T20:12:53.571Z,63.04
2023-04-15T20:15:20.252Z,63.42
2023-04-15T20:17:46.941Z,64.06
2023-04-15T20:20:13.950Z,63.88
2023-04-15T20:22:40.534Z,64.04
2023-04-15T20:25:07.126Z,63.88
2023-04-15T20:27:33.712Z,64.17
2023-04-15T20:30:00.391Z,63.84
2023-04-15T20:32:27.383Z,63.38
2023-04-15T20:34:53.963Z,64.00
2023-04-15T20:37:20.572Z,64.55
2023-04-15T20:39:47.163Z,64.83
2023-04-15T20:42:13.741Z,64.43
2023-04-15T20:44:40.365Z,65.06
2023-04-15T20:47:06.971Z,64.64
2023-04-15T20:49:33.755Z,64.72
2023-04-15T20:52:00.345Z,65.08
2023-04-15T20:54:26.947Z,64.55
2023-04-15T20:56:53.531Z,65.24
2023-04-15T20:59:20.104Z,64.56
2023-04-15T21:01:46.758Z,65.12
2023-04-15T21:04:13.518Z,65.15
2023-04-15T21:06:40.149Z,64.38
2023-04-15T21:09:07.309Z,64.87
2023-04-15T21:11:53.297Z,64.25
2023-04-15T21:14:20.631Z,65.04
2023-04-15T21:16:47.286Z,65.28
2023-04-15T21:19:13.853Z,64.51
2023-04-15T21:21:40.431Z,64.14
2023-04-15T21:24:07.055Z,64.30
2023-04-15T21:26:34.111Z,64.62
2023-04-15T21:29:00.702Z,64.19
2023-04-15T21:31:27.421Z,64.32
2023-04-15T21:33:54.039Z,64.48
2023-04-15T21:36:20.668Z,65.23
2023-04-15T21:38:47.314Z,65.46
2023-04-15T21:41:13.878Z,64.74
2023-04-15T21:43:40.461Z,64.87
2023-04-15T21:46:22.477Z,64.42
2023-04-15T21:48:50.466Z,64.10
2023-04-15T21:51:17.054Z,64.38
2023-04-15T21:53:43.615Z,63.90
2023-04-15T21:56:10.218Z,64.46
2023-04-15T21:58:36.826Z,64.63
2023-04-15T22:01:03.488Z,64.22
2023-04-15T22:03:30.202Z,64.89
2023-04-15T22:05:57.027Z,64.44
2023-04-15T22:08:23.636Z,63.76
2023-04-15T22:10:50.226Z,63.94
2023-04-15T22:13:16.789Z,64.11
2023-04-15T22:15:43.362Z,64.46
2023-04-15T22:18:10.090Z,64.60
2023-04-15T22:20:36.681Z,64.57
2023-04-15T22:23:03.242Z,64.37
2023-04-15T22:25:29.894Z,64.09
2023-04-15T22:27:56.443Z,63.86
2023-04-15T22:30:23.055Z,63.85
2023-04-15T22:32:49.668Z,63.78
2023-04-15T22:35:16.256Z,64.79
2023-04-15T22:37:42.999Z,64.80
2023-04-15T22:40:09.577Z,64.43
2023-04-15T22:42:36.171Z,65.44
2023-04-15T22:45:02.751Z,65.19
2023-04-15T22:47:29.347Z,65.22
2023-04-15T22:49:55.935Z,66.12
2023-04-15T22:52:30.200Z,65.70
2023-04-15T22:54:57.812Z,65.18
2023-04-15T22:57:24.408Z,65.59
2023-04-15T22:59:51.038Z,65.34
2023-04-15T23:02:17.886Z,64.86
2023-04-15T23:04:44.819Z,65.36
2023-04-15T23:07:11.511Z,65.75
2023-04-15T23:09:38.124Z,64.90
2023-04-15T23:12:04.717Z,64.15
2023-04-15T23:14:31.274Z,65.32
2023-04-15T23:16:57.887Z,65.21
2023-04-15T23:19:24.517Z,65.48
2023-04-15T23:21:51.194Z,65.19
2023-04-15T23:24:17.779Z,65.26
2023-04-15T23:26:44.465Z,65.41
2023-04-15T23:29:11.192Z,65.49
2023-04-15T23:31:38.147Z,67.32
2023-04-15T23:34:04.756Z,67.54
2023-04-15T23:36:31.310Z,66.23
2023-04-15T23:38:58.882Z,65.42
2023-04-15T23:41:25.470Z,65.89
2023-04-15T23:43:52.026Z,65.15
2023-04-15T23:46:18.615Z,64.78
2023-04-15T23:48:45.288Z,65.61
2023-04-15T23:51:11.899Z,65.03
2023-04-15T23:53:38.568Z,65.44
2023-04-15T23:56:05.162Z,65.02
2023-04-15T23:58:33.453Z,65.95
